sensor_id;sensor_type;location;lat;lon;timestamp;P1;durP1;ratioP1;P2;durP2;ratioP2
33579;SDS011;19909;43.644;-79.438;2023-09-19T00:02:04;12.20;;;5.68;;
33579;SDS011;19909;43.644;-79.438;2023-09-19T00:04:31;11.95;;;6.70;;
33579;SDS011;19909;43.644;-79.438;2023-09-19T00:06:58;8.70;;;5.43;;
33579;SDS011;19909;43.644;-79.438;2023-09-19T00:09:24;8.85;;;5.63;;
33579;SDS011;19909;43.644;-79.438;2023-09-19T00:11:53;6.38;;;5.00;;
33579;SDS011;19909;43.644;-79.438;2023-09-19T00:14:19;7.55;;;5.10;;
33579;SDS011;19909;43.644;-79.438;2023-09-19T00:16:49;6.63;;;4.40;;
33579;SDS011;19909;43.644;-79.438;2023-09-19T00:19:16;5.50;;;4.70;;
33579;SDS011;19909;43.644;-79.438;2023-09-19T00:21:42;6.82;;;4.85;;
33579;SDS011;19909;43.644;-79.438;2023-09-19T00:24:12;7.72;;;4.72;;
33579;SDS011;19909;43.644;-79.438;2023-09-19T00:26:39;6.93;;;4.72;;
33579;SDS011;19909;43.644;-79.438;2023-09-19T00:29:05;5.88;;;4.68;;
33579;SDS011;19909;43.644;-79.438;2023-09-19T00:31:34;5.97;;;3.92;;
33579;SDS011;19909;43.644;-79.438;2023-09-19T00:34:03;5.10;;;4.03;;
33579;SDS011;19909;43.644;-79.438;2023-09-19T00:36:35;6.68;;;4.50;;
33579;SDS011;19909;43.644;-79.438;2023-09-19T00:39:07;7.03;;;3.80;;
33579;SDS011;19909;43.644;-79.438;2023-09-19T00:41:33;6.68;;;4.53;;
33579;SDS011;19909;43.644;-79.438;2023-09-19T00:44:07;4.95;;;4.20;;
33579;SDS011;19909;43.644;-79.438;2023-09-19T00:46:33;6.10;;;3.70;;
33579;SDS011;19909;43.644;-79.438;2023-09-19T00:48:59;8.07;;;3.72;;
33579;SDS011;19909;43.644;-79.438;2023-09-19T00:51:26;4.80;;;3.50;;
33579;SDS011;19909;43.644;-79.438;2023-09-19T00:53:52;5.95;;;3.90;;
33579;SDS011;19909;43.644;-79.438;2023-09-19T00:56:20;5.97;;;3.83;;
33579;SDS011;19909;43.644;-79.438;2023-09-19T00:58:49;4.25;;;3.15;;
33579;SDS011;19909;43.644;-79.438;2023-09-19T01:01:15;4.85;;;3.67;;
33579;SDS011;19909;43.644;-79.438;2023-09-19T01:03:42;4.50;;;3.13;;
33579;SDS011;19909;43.644;-79.438;2023-09-19T01:06:09;3.38;;;2.97;;
33579;SDS011;19909;43.644;-79.438;2023-09-19T01:08:35;3.95;;;2.90;;
33579;SDS011;19909;43.644;-79.438;2023-09-19T01:16:50;3.47;;;2.95;;
33579;SDS011;19909;43.644;-79.438;2023-09-19T01:20:01;3.60;;;2.80;;
33579;SDS011;19909;43.644;-79.438;2023-09-19T01:22:48;6.07;;;3.08;;
33579;SDS011;19909;43.644;-79.438;2023-09-19T01:31:03;4.15;;;2.83;;
33579;SDS011;19909;43.644;-79.438;2023-09-19T01:36:25;4.72;;;2.50;;
33579;SDS011;19909;43.644;-79.438;2023-09-19T01:38:51;5.43;;;2.90;;
33579;SDS011;19909;43.644;-79.438;2023-09-19T01:41:21;4.10;;;2.72;;
33579;SDS011;19909;43.644;-79.438;2023-09-19T01:43:55;3.40;;;2.83;;
33579;SDS011;19909;43.644;-79.438;2023-09-19T01:46:25;3.03;;;2.30;;
33579;SDS011;19909;43.644;-79.438;2023-09-19T01:51:37;2.90;;;2.53;;
33579;SDS011;19909;43.644;-79.438;2023-09-19T01:54:16;3.83;;;3.00;;
33579;SDS011;19909;43.644;-79.438;2023-09-19T01:57:01;3.00;;;2.50;;
33579;SDS011;19909;43.644;-79.438;2023-09-19T01:59:40;5.15;;;2.63;;
33579;SDS011;19909;43.644;-79.438;2023-09-19T02:02:10;4.15;;;2.20;;
33579;SDS011;19909;43.644;-79.438;2023-09-19T02:04:39;3.22;;;2.15;;
33579;SDS011;19909;43.644;-79.438;2023-09-19T02:07:05;3.33;;;2.38;;
33579;SDS011;19909;43.644;-79.438;2023-09-19T02:09:33;3.53;;;2.50;;
33579;SDS011;19909;43.644;-79.438;2023-09-19T02:12:01;3.47;;;2.55;;
33579;SDS011;19909;43.644;-79.438;2023-09-19T02:14:28;3.17;;;2.25;;
33579;SDS011;19909;43.644;-79.438;2023-09-19T02:16:56;3.70;;;2.72;;
33579;SDS011;19909;43.644;-79.438;2023-09-19T02:19:22;2.83;;;2.40;;
33579;SDS011;19909;43.644;-79.438;2023-09-19T02:21:48;2.40;;;2.05;;
33579;SDS011;19909;43.644;-79.438;2023-09-19T02:24:15;3.92;;;2.25;;
33579;SDS011;19909;43.644;-79.438;2023-09-19T02:26:41;3.65;;;2.58;;
33579;SDS011;19909;43.644;-79.438;2023-09-19T02:29:09;4.88;;;2.30;;
33579;SDS011;19909;43.644;-79.438;2023-09-19T02:31:38;3.40;;;2.55;;
33579;SDS011;19909;43.644;-79.438;2023-09-19T02:34:05;2.60;;;2.00;;
33579;SDS011;19909;43.644;-79.438;2023-09-19T02:36:32;4.30;;;2.67;;
33579;SDS011;19909;43.644;-79.438;2023-09-19T02:38:58;3.05;;;2.72;;
33579;SDS011;19909;43.644;-79.438;2023-09-19T02:41:26;3.08;;;2.38;;
33579;SDS011;19909;43.644;-79.438;2023-09-19T02:43:54;2.50;;;2.15;;
33579;SDS011;19909;43.644;-79.438;2023-09-19T02:46:21;3.00;;;2.42;;
33579;SDS011;19909;43.644;-79.438;2023-09-19T02:48:47;3.15;;;2.30;;
33579;SDS011;19909;43.644;-79.438;2023-09-19T02:51:13;3.28;;;2.08;;
33579;SDS011;19909;43.644;-79.438;2023-09-19T02:53:39;2.95;;;2.30;;
33579;SDS011;19909;43.644;-79.438;2023-09-19T02:56:07;2.83;;;1.90;;
33579;SDS011;19909;43.644;-79.438;2023-09-19T02:58:34;2.55;;;2.35;;
33579;SDS011;19909;43.644;-79.438;2023-09-19T03:01:09;2.55;;;2.10;;
33579;SDS011;19909;43.644;-79.438;2023-09-19T03:03:43;2.35;;;1.90;;
33579;SDS011;19909;43.644;-79.438;2023-09-19T03:06:13;3.25;;;2.30;;
33579;SDS011;19909;43.644;-79.438;2023-09-19T03:08:40;3.28;;;2.58;;
33579;SDS011;19909;43.644;-79.438;2023-09-19T03:11:07;3.40;;;2.30;;
33579;SDS011;19909;43.644;-79.438;2023-09-19T03:13:36;2.10;;;1.90;;
33579;SDS011;19909;43.644;-79.438;2023-09-19T03:16:06;2.45;;;2.25;;
33579;SDS011;19909;43.644;-79.438;2023-09-19T03:18:35;2.50;;;2.22;;
33579;SDS011;19909;43.644;-79.438;2023-09-19T03:21:01;3.75;;;1.92;;
33579;SDS011;19909;43.644;-79.438;2023-09-19T03:23:28;2.75;;;2.22;;
33579;SDS011;19909;43.644;-79.438;2023-09-19T03:25:55;2.22;;;2.03;;
33579;SDS011;19909;43.644;-79.438;2023-09-19T03:28:24;3.88;;;2.08;;
33579;SDS011;19909;43.644;-79.438;2023-09-19T03:31:00;2.00;;;1.60;;
33579;SDS011;19909;43.644;-79.438;2023-09-19T03:33:27;1.95;;;1.73;;
33579;SDS011;19909;43.644;-79.438;2023-09-19T03:35:53;3.03;;;1.90;;
33579;SDS011;19909;43.644;-79.438;2023-09-19T03:38:20;2.70;;;1.75;;
33579;SDS011;19909;43.644;-79.438;2023-09-19T03:40:47;2.47;;;1.98;;
33579;SDS011;19909;43.644;-79.438;2023-09-19T03:43:14;2.17;;;1.55;;
33579;SDS011;19909;43.644;-79.438;2023-09-19T03:45:40;2.38;;;1.90;;
33579;SDS011;19909;43.644;-79.438;2023-09-19T03:48:09;2.28;;;2.00;;
33579;SDS011;19909;43.644;-79.438;2023-09-19T03:50:36;2.53;;;2.05;;
33579;SDS011;19909;43.644;-79.438;2023-09-19T03:53:02;2.22;;;1.90;;
33579;SDS011;19909;43.644;-79.438;2023-09-19T03:55:29;3.08;;;1.85;;
33579;SDS011;19909;43.644;-79.438;2023-09-19T03:57:58;2.08;;;1.88;;
33579;SDS011;19909;43.644;-79.438;2023-09-19T04:00:24;2.50;;;2.03;;
33579;SDS011;19909;43.644;-79.438;2023-09-19T04:02:51;4.13;;;2.15;;
33579;SDS011;19909;43.644;-79.438;2023-09-19T04:05:18;3.58;;;1.85;;
33579;SDS011;19909;43.644;-79.438;2023-09-19T04:07:44;4.05;;;2.13;;
33579;SDS011;19909;43.644;-79.438;2023-09-19T04:10:13;2.28;;;1.95;;
33579;SDS011;19909;43.644;-79.438;2023-09-19T04:12:40;2.17;;;1.88;;
33579;SDS011;19909;43.644;-79.438;2023-09-19T04:15:09;2.25;;;1.48;;
33579;SDS011;19909;43.644;-79.438;2023-09-19T04:17:38;1.60;;;1.35;;
33579;SDS011;19909;43.644;-79.438;2023-09-19T04:20:07;1.95;;;1.52;;
33579;SDS011;19909;43.644;-79.438;2023-09-19T04:22:37;2.30;;;1.67;;
33579;SDS011;19909;43.644;-79.438;2023-09-19T04:25:04;1.83;;;1.60;;
33579;SDS011;19909;43.644;-79.438;2023-09-19T04:27:36;2.90;;;1.90;;
33579;SDS011;19909;43.644;-79.438;2023-09-19T04:30:03;2.20;;;1.70;;
33579;SDS011;19909;43.644;-79.438;2023-09-19T04:32:35;3.30;;;1.60;;
33579;SDS011;19909;43.644;-79.438;2023-09-19T04:35:05;2.90;;;1.88;;
33579;SDS011;19909;43.644;-79.438;2023-09-19T04:37:38;3.00;;;1.90;;
33579;SDS011;19909;43.644;-79.438;2023-09-19T04:40:10;2.92;;;1.52;;
33579;SDS011;19909;43.644;-79.438;2023-09-19T04:42:40;1.65;;;1.45;;
33579;SDS011;19909;43.644;-79.438;2023-09-19T04:45:10;3.38;;;1.52;;
33579;SDS011;19909;43.644;-79.438;2023-09-19T04:47:37;2.17;;;1.48;;
33579;SDS011;19909;43.644;-79.438;2023-09-19T04:50:06;3.05;;;1.92;;
33579;SDS011;19909;43.644;-79.438;2023-09-19T04:52:38;2.55;;;1.58;;
33579;SDS011;19909;43.644;-79.438;2023-09-19T04:55:08;3.17;;;1.48;;
33579;SDS011;19909;43.644;-79.438;2023-09-19T04:57:44;2.50;;;1.52;;
33579;SDS011;19909;43.644;-79.438;2023-09-19T05:00:15;2.08;;;1.48;;
33579;SDS011;19909;43.644;-79.438;2023-09-19T05:02:49;3.90;;;1.67;;
33579;SDS011;19909;43.644;-79.438;2023-09-19T05:05:19;1.50;;;1.35;;
33579;SDS011;19909;43.644;-79.438;2023-09-19T05:07:46;2.47;;;1.60;;
33579;SDS011;19909;43.644;-79.438;2023-09-19T05:10:12;2.00;;;1.38;;
33579;SDS011;19909;43.644;-79.438;2023-09-19T05:12:38;3.17;;;1.65;;
33579;SDS011;19909;43.644;-79.438;2023-09-19T05:15:05;4.63;;;1.50;;
33579;SDS011;19909;43.644;-79.438;2023-09-19T05:17:33;1.70;;;1.48;;
33579;SDS011;19909;43.644;-79.438;2023-09-19T05:20:00;5.25;;;1.77;;
33579;SDS011;19909;43.644;-79.438;2023-09-19T05:22:38;2.38;;;1.63;;
33579;SDS011;19909;43.644;-79.438;2023-09-19T05:25:06;2.15;;;1.52;;
33579;SDS011;19909;43.644;-79.438;2023-09-19T05:27:32;2.58;;;1.48;;
33579;SDS011;19909;43.644;-79.438;2023-09-19T05:30:02;2.70;;;1.70;;
33579;SDS011;19909;43.644;-79.438;2023-09-19T05:32:29;2.88;;;1.50;;
33579;SDS011;19909;43.644;-79.438;2023-09-19T05:34:55;2.33;;;1.70;;
33579;SDS011;19909;43.644;-79.438;2023-09-19T05:37:22;2.15;;;1.48;;
33579;SDS011;19909;43.644;-79.438;2023-09-19T05:39:48;4.43;;;1.60;;
33579;SDS011;19909;43.644;-79.438;2023-09-19T05:42:15;1.58;;;1.33;;
33579;SDS011;19909;43.644;-79.438;2023-09-19T05:44:41;3.47;;;1.50;;
33579;SDS011;19909;43.644;-79.438;2023-09-19T05:47:07;2.88;;;1.55;;
33579;SDS011;19909;43.644;-79.438;2023-09-19T05:49:37;2.33;;;1.60;;
33579;SDS011;19909;43.644;-79.438;2023-09-19T05:52:04;2.65;;;1.40;;
33579;SDS011;19909;43.644;-79.438;2023-09-19T05:54:31;2.38;;;1.20;;
33579;SDS011;19909;43.644;-79.438;2023-09-19T05:57:02;3.10;;;1.48;;
33579;SDS011;19909;43.644;-79.438;2023-09-19T05:59:28;2.83;;;1.63;;
33579;SDS011;19909;43.644;-79.438;2023-09-19T06:01:55;1.95;;;1.40;;
33579;SDS011;19909;43.644;-79.438;2023-09-19T06:04:21;4.38;;;1.67;;
33579;SDS011;19909;43.644;-79.438;2023-09-19T06:06:48;3.38;;;1.80;;
33579;SDS011;19909;43.644;-79.438;2023-09-19T06:09:14;2.35;;;1.20;;
33579;SDS011;19909;43.644;-79.438;2023-09-19T06:11:43;2.20;;;1.52;;
33579;SDS011;19909;43.644;-79.438;2023-09-19T06:14:09;1.60;;;1.30;;
33579;SDS011;19909;43.644;-79.438;2023-09-19T06:16:36;2.25;;;1.50;;
33579;SDS011;19909;43.644;-79.438;2023-09-19T06:19:07;2.15;;;1.33;;
33579;SDS011;19909;43.644;-79.438;2023-09-19T06:21:35;1.27;;;1.17;;
33579;SDS011;19909;43.644;-79.438;2023-09-19T06:24:02;1.85;;;1.55;;
33579;SDS011;19909;43.644;-79.438;2023-09-19T06:26:28;1.52;;;1.40;;
33579;SDS011;19909;43.644;-79.438;2023-09-19T06:28:56;2.72;;;1.70;;
33579;SDS011;19909;43.644;-79.438;2023-09-19T06:31:22;2.35;;;1.38;;
33579;SDS011;19909;43.644;-79.438;2023-09-19T06:33:51;2.15;;;1.30;;
33579;SDS011;19909;43.644;-79.438;2023-09-19T06:36:18;1.77;;;1.40;;
33579;SDS011;19909;43.644;-79.438;2023-09-19T06:38:45;2.30;;;1.33;;
33579;SDS011;19909;43.644;-79.438;2023-09-19T06:41:12;2.80;;;1.55;;
33579;SDS011;19909;43.644;-79.438;2023-09-19T06:43:39;2.58;;;1.67;;
33579;SDS011;19909;43.644;-79.438;2023-09-19T06:46:05;3.50;;;1.75;;
33579;SDS011;19909;43.644;-79.438;2023-09-19T06:48:32;4.47;;;1.70;;
33579;SDS011;19909;43.644;-79.438;2023-09-19T06:51:00;2.35;;;1.05;;
33579;SDS011;19909;43.644;-79.438;2023-09-19T06:53:31;1.73;;;1.10;;
33579;SDS011;19909;43.644;-79.438;2023-09-19T06:56:01;1.73;;;1.25;;
33579;SDS011;19909;43.644;-79.438;2023-09-19T06:58:28;1.58;;;1.23;;
33579;SDS011;19909;43.644;-79.438;2023-09-19T07:00:54;2.17;;;1.38;;
33579;SDS011;19909;43.644;-79.438;2023-09-19T07:03:21;4.00;;;1.25;;
33579;SDS011;19909;43.644;-79.438;2023-09-19T07:05:51;2.17;;;1.10;;
33579;SDS011;19909;43.644;-79.438;2023-09-19T07:08:17;2.97;;;1.67;;
33579;SDS011;19909;43.644;-79.438;2023-09-19T07:10:45;2.33;;;1.38;;
33579;SDS011;19909;43.644;-79.438;2023-09-19T07:13:13;1.85;;;1.17;;
33579;SDS011;19909;43.644;-79.438;2023-09-19T07:15:42;1.40;;;1.25;;
33579;SDS011;19909;43.644;-79.438;2023-09-19T07:18:12;2.08;;;1.17;;
33579;SDS011;19909;43.644;-79.438;2023-09-19T07:20:40;3.00;;;1.42;;
33579;SDS011;19909;43.644;-79.438;2023-09-19T07:23:11;3.17;;;1.00;;
33579;SDS011;19909;43.644;-79.438;2023-09-19T07:25:40;6.00;;;1.42;;
33579;SDS011;19909;43.644;-79.438;2023-09-19T07:28:06;1.63;;;1.20;;
33579;SDS011;19909;43.644;-79.438;2023-09-19T07:30:35;4.60;;;1.58;;
33579;SDS011;19909;43.644;-79.438;2023-09-19T07:33:06;3.35;;;1.30;;
33579;SDS011;19909;43.644;-79.438;2023-09-19T07:35:36;2.55;;;1.30;;
33579;SDS011;19909;43.644;-79.438;2023-09-19T07:38:05;2.47;;;1.38;;
33579;SDS011;19909;43.644;-79.438;2023-09-19T07:40:33;1.60;;;1.00;;
33579;SDS011;19909;43.644;-79.438;2023-09-19T07:42:59;2.55;;;1.48;;
33579;SDS011;19909;43.644;-79.438;2023-09-19T07:45:29;2.67;;;1.20;;
33579;SDS011;19909;43.644;-79.438;2023-09-19T07:47:59;1.63;;;1.13;;
33579;SDS011;19909;43.644;-79.438;2023-09-19T07:50:29;2.03;;;1.30;;
33579;SDS011;19909;43.644;-79.438;2023-09-19T07:52:55;2.03;;;1.15;;
33579;SDS011;19909;43.644;-79.438;2023-09-19T07:55:22;1.65;;;1.30;;
33579;SDS011;19909;43.644;-79.438;2023-09-19T07:57:54;2.75;;;1.23;;
33579;SDS011;19909;43.644;-79.438;2023-09-19T08:00:20;1.60;;;1.20;;
33579;SDS011;19909;43.644;-79.438;2023-09-19T08:02:46;2.33;;;1.10;;
33579;SDS011;19909;43.644;-79.438;2023-09-19T08:05:13;2.33;;;1.25;;
33579;SDS011;19909;43.644;-79.438;2023-09-19T08:07:43;2.95;;;1.30;;
33579;SDS011;19909;43.644;-79.438;2023-09-19T08:10:21;2.25;;;1.50;;
33579;SDS011;19909;43.644;-79.438;2023-09-19T08:12:48;2.88;;;1.38;;
33579;SDS011;19909;43.644;-79.438;2023-09-19T08:15:18;1.73;;;1.15;;
33579;SDS011;19909;43.644;-79.438;2023-09-19T08:17:45;3.97;;;1.38;;
33579;SDS011;19909;43.644;-79.438;2023-09-19T08:20:12;2.58;;;1.35;;
33579;SDS011;19909;43.644;-79.438;2023-09-19T08:22:48;5.68;;;1.27;;
33579;SDS011;19909;43.644;-79.438;2023-09-19T08:25:17;1.83;;;1.30;;
33579;SDS011;19909;43.644;-79.438;2023-09-19T08:27:44;3.97;;;1.33;;
33579;SDS011;19909;43.644;-79.438;2023-09-19T08:30:15;3.90;;;1.50;;
33579;SDS011;19909;43.644;-79.438;2023-09-19T08:32:49;4.45;;;1.50;;
33579;SDS011;19909;43.644;-79.438;2023-09-19T08:35:16;3.03;;;1.50;;
33579;SDS011;19909;43.644;-79.438;2023-09-19T08:37:42;2.28;;;1.60;;
33579;SDS011;19909;43.644;-79.438;2023-09-19T08:40:11;2.22;;;1.20;;
33579;SDS011;19909;43.644;-79.438;2023-09-19T08:42:50;3.17;;;1.08;;
33579;SDS011;19909;43.644;-79.438;2023-09-19T08:45:19;1.52;;;1.23;;
33579;SDS011;19909;43.644;-79.438;2023-09-19T08:51:25;2.25;;;1.40;;
33579;SDS011;19909;43.644;-79.438;2023-09-19T08:53:41;2.00;;;1.40;;
33579;SDS011;19909;43.644;-79.438;2023-09-19T08:56:21;2.67;;;1.35;;
33579;SDS011;19909;43.644;-79.438;2023-09-19T08:58:53;4.00;;;1.20;;
33579;SDS011;19909;43.644;-79.438;2023-09-19T09:01:23;1.02;;;0.90;;
33579;SDS011;19909;43.644;-79.438;2023-09-19T09:03:54;3.25;;;1.40;;
33579;SDS011;19909;43.644;-79.438;2023-09-19T09:06:22;2.05;;;1.30;;
33579;SDS011;19909;43.644;-79.438;2023-09-19T09:08:52;2.80;;;1.15;;
33579;SDS011;19909;43.644;-79.438;2023-09-19T09:11:19;1.70;;;1.48;;
33579;SDS011;19909;43.644;-79.438;2023-09-19T09:13:46;2.63;;;1.30;;
33579;SDS011;19909;43.644;-79.438;2023-09-19T09:16:13;2.35;;;1.10;;
33579;SDS011;19909;43.644;-79.438;2023-09-19T09:18:44;2.35;;;1.27;;
33579;SDS011;19909;43.644;-79.438;2023-09-19T09:21:11;1.75;;;1.20;;
33579;SDS011;19909;43.644;-79.438;2023-09-19T09:23:38;1.73;;;1.10;;
33579;SDS011;19909;43.644;-79.438;2023-09-19T09:26:04;2.55;;;1.25;;
33579;SDS011;19909;43.644;-79.438;2023-09-19T09:28:33;3.72;;;1.80;;
33579;SDS011;19909;43.644;-79.438;2023-09-19T09:31:01;2.03;;;1.15;;
33579;SDS011;19909;43.644;-79.438;2023-09-19T09:33:33;1.50;;;1.23;;
33579;SDS011;19909;43.644;-79.438;2023-09-19T09:36:00;2.28;;;1.05;;
33579;SDS011;19909;43.644;-79.438;2023-09-19T09:41:11;2.15;;;1.45;;
33579;SDS011;19909;43.644;-79.438;2023-09-19T09:43:41;1.70;;;1.30;;
33579;SDS011;19909;43.644;-79.438;2023-09-19T09:46:13;1.30;;;1.05;;
33579;SDS011;19909;43.644;-79.438;2023-09-19T09:52:14;2.78;;;1.30;;
33579;SDS011;19909;43.644;-79.438;2023-09-19T09:55:00;2.20;;;1.20;;
33579;SDS011;19909;43.644;-79.438;2023-09-19T09:57:33;2.55;;;1.25;;
33579;SDS011;19909;43.644;-79.438;2023-09-19T10:00:00;2.35;;;1.50;;
33579;SDS011;19909;43.644;-79.438;2023-09-19T10:02:36;3.22;;;1.13;;
33579;SDS011;19909;43.644;-79.438;2023-09-19T10:07:54;1.75;;;0.85;;
33579;SDS011;19909;43.644;-79.438;2023-09-19T10:10:34;2.40;;;1.00;;
33579;SDS011;19909;43.644;-79.438;2023-09-19T10:13:07;1.55;;;1.10;;
33579;SDS011;19909;43.644;-79.438;2023-09-19T10:15:50;1.55;;;1.00;;
33579;SDS011;19909;43.644;-79.438;2023-09-19T10:20:49;1.65;;;1.00;;
33579;SDS011;19909;43.644;-79.438;2023-09-19T10:23:17;2.45;;;1.20;;
33579;SDS011;19909;43.644;-79.438;2023-09-19T10:25:51;4.07;;;1.08;;
33579;SDS011;19909;43.644;-79.438;2023-09-19T10:28:18;2.83;;;1.30;;
33579;SDS011;19909;43.644;-79.438;2023-09-19T10:30:48;1.85;;;1.20;;
33579;SDS011;19909;43.644;-79.438;2023-09-19T10:33:17;3.80;;;1.27;;
33579;SDS011;19909;43.644;-79.438;2023-09-19T10:35:48;3.35;;;1.13;;
33579;SDS011;19909;43.644;-79.438;2023-09-19T10:38:18;1.52;;;1.20;;
33579;SDS011;19909;43.644;-79.438;2023-09-19T10:40:48;1.80;;;1.38;;
33579;SDS011;19909;43.644;-79.438;2023-09-19T10:43:18;2.45;;;1.17;;
33579;SDS011;19909;43.644;-79.438;2023-09-19T10:45:46;2.58;;;1.08;;
33579;SDS011;19909;43.644;-79.438;2023-09-19T10:48:17;2.35;;;1.48;;
33579;SDS011;19909;43.644;-79.438;2023-09-19T10:50:52;2.78;;;1.20;;
33579;SDS011;19909;43.644;-79.438;2023-09-19T10:53:52;1.75;;;1.10;;
33579;SDS011;19909;43.644;-79.438;2023-09-19T10:56:35;2.25;;;1.45;;
33579;SDS011;19909;43.644;-79.438;2023-09-19T10:59:09;1.50;;;1.10;;
33579;SDS011;19909;43.644;-79.438;2023-09-19T11:09:51;3.10;;;1.27;;
33579;SDS011;19909;43.644;-79.438;2023-09-19T11:15:08;3.25;;;1.38;;
33579;SDS011;19909;43.644;-79.438;2023-09-19T11:17:39;3.00;;;1.27;;
33579;SDS011;19909;43.644;-79.438;2023-09-19T11:46:35;3.45;;;1.83;;
33579;SDS011;19909;43.644;-79.438;2023-09-19T11:49:17;2.67;;;1.15;;
33579;SDS011;19909;43.644;-79.438;2023-09-19T11:51:51;3.47;;;1.53;;
33579;SDS011;19909;43.644;-79.438;2023-09-19T11:54:17;3.00;;;1.73;;
33579;SDS011;19909;43.644;-79.438;2023-09-19T11:56:44;2.92;;;1.40;;
33579;SDS011;19909;43.644;-79.438;2023-09-19T11:59:19;2.83;;;1.52;;
33579;SDS011;19909;43.644;-79.438;2023-09-19T12:01:56;3.00;;;1.60;;
33579;SDS011;19909;43.644;-79.438;2023-09-19T12:09:40;4.70;;;1.67;;
33579;SDS011;19909;43.644;-79.438;2023-09-19T12:14:48;5.18;;;1.83;;
33579;SDS011;19909;43.644;-79.438;2023-09-19T12:17:16;4.65;;;2.00;;
33579;SDS011;19909;43.644;-79.438;2023-09-19T12:19:58;3.00;;;1.60;;
33579;SDS011;19909;43.644;-79.438;2023-09-19T12:22:24;4.50;;;1.85;;
33579;SDS011;19909;43.644;-79.438;2023-09-19T12:24:50;2.78;;;1.75;;
33579;SDS011;19909;43.644;-79.438;2023-09-19T12:27:19;2.75;;;1.67;;
33579;SDS011;19909;43.644;-79.438;2023-09-19T12:29:47;2.83;;;1.50;;
33579;SDS011;19909;43.644;-79.438;2023-09-19T12:32:14;2.90;;;2.00;;
33579;SDS011;19909;43.644;-79.438;2023-09-19T12:34:52;4.28;;;1.92;;
33579;SDS011;19909;43.644;-79.438;2023-09-19T12:37:19;3.70;;;1.80;;
33579;SDS011;19909;43.644;-79.438;2023-09-19T12:39:47;3.55;;;1.83;;
33579;SDS011;19909;43.644;-79.438;2023-09-19T12:42:25;1.95;;;1.58;;
33579;SDS011;19909;43.644;-79.438;2023-09-19T12:45:00;2.88;;;1.60;;
33579;SDS011;19909;43.644;-79.438;2023-09-19T12:47:27;4.43;;;1.90;;
33579;SDS011;19909;43.644;-79.438;2023-09-19T12:50:15;3.15;;;1.95;;
33579;SDS011;19909;43.644;-79.438;2023-09-19T12:52:47;2.40;;;1.80;;
33579;SDS011;19909;43.644;-79.438;2023-09-19T13:00:41;3.75;;;1.48;;
33579;SDS011;19909;43.644;-79.438;2023-09-19T13:06:03;3.25;;;1.85;;
33579;SDS011;19909;43.644;-79.438;2023-09-19T13:11:03;2.20;;;1.63;;
33579;SDS011;19909;43.644;-79.438;2023-09-19T13:13:38;2.53;;;1.75;;
33579;SDS011;19909;43.644;-79.438;2023-09-19T13:16:06;2.97;;;1.85;;
33579;SDS011;19909;43.644;-79.438;2023-09-19T13:18:46;2.00;;;1.42;;
33579;SDS011;19909;43.644;-79.438;2023-09-19T13:21:13;3.00;;;1.73;;
33579;SDS011;19909;43.644;-79.438;2023-09-19T13:23:50;2.88;;;1.70;;
33579;SDS011;19909;43.644;-79.438;2023-09-19T13:26:39;4.80;;;1.77;;
33579;SDS011;19909;43.644;-79.438;2023-09-19T13:29:05;1.92;;;1.60;;
33579;SDS011;19909;43.644;-79.438;2023-09-19T13:31:31;2.78;;;1.83;;
33579;SDS011;19909;43.644;-79.438;2023-09-19T13:33:58;2.53;;;1.60;;
33579;SDS011;19909;43.644;-79.438;2023-09-19T13:36:24;3.65;;;1.73;;
33579;SDS011;19909;43.644;-79.438;2023-09-19T13:38:50;2.33;;;1.80;;
33579;SDS011;19909;43.644;-79.438;2023-09-19T13:41:18;2.50;;;1.90;;
33579;SDS011;19909;43.644;-79.438;2023-09-19T13:43:44;2.90;;;2.10;;
33579;SDS011;19909;43.644;-79.438;2023-09-19T13:46:14;4.00;;;1.73;;
33579;SDS011;19909;43.644;-79.438;2023-09-19T13:48:42;2.38;;;1.55;;
33579;SDS011;19909;43.644;-79.438;2023-09-19T13:51:08;1.90;;;1.35;;
33579;SDS011;19909;43.644;-79.438;2023-09-19T13:53:35;2.03;;;1.83;;
33579;SDS011;19909;43.644;-79.438;2023-09-19T13:56:01;1.70;;;1.40;;
33579;SDS011;19909;43.644;-79.438;2023-09-19T13:58:28;2.25;;;1.75;;
33579;SDS011;19909;43.644;-79.438;2023-09-19T14:00:56;2.58;;;1.75;;
33579;SDS011;19909;43.644;-79.438;2023-09-19T14:03:23;3.85;;;1.50;;
33579;SDS011;19909;43.644;-79.438;2023-09-19T14:05:49;2.13;;;1.30;;
33579;SDS011;19909;43.644;-79.438;2023-09-19T14:08:16;5.10;;;1.60;;
33579;SDS011;19909;43.644;-79.438;2023-09-19T14:10:43;3.20;;;1.88;;
33579;SDS011;19909;43.644;-79.438;2023-09-19T14:13:09;2.90;;;1.85;;
33579;SDS011;19909;43.644;-79.438;2023-09-19T14:15:38;1.83;;;1.55;;
33579;SDS011;19909;43.644;-79.438;2023-09-19T14:18:04;1.83;;;1.50;;
33579;SDS011;19909;43.644;-79.438;2023-09-19T14:20:30;2.15;;;1.58;;
33579;SDS011;19909;43.644;-79.438;2023-09-19T14:22:57;1.98;;;1.50;;
33579;SDS011;19909;43.644;-79.438;2023-09-19T14:25:26;2.72;;;1.65;;
33579;SDS011;19909;43.644;-79.438;2023-09-19T14:27:54;2.17;;;1.58;;
33579;SDS011;19909;43.644;-79.438;2023-09-19T14:30:20;2.22;;;1.60;;
33579;SDS011;19909;43.644;-79.438;2023-09-19T14:32:46;2.67;;;1.73;;
33579;SDS011;19909;43.644;-79.438;2023-09-19T14:35:13;2.40;;;1.63;;
33579;SDS011;19909;43.644;-79.438;2023-09-19T14:37:40;1.83;;;1.60;;
33579;SDS011;19909;43.644;-79.438;2023-09-19T14:40:06;2.53;;;1.70;;
33579;SDS011;19909;43.644;-79.438;2023-09-19T14:42:38;1.45;;;1.15;;
33579;SDS011;19909;43.644;-79.438;2023-09-19T14:45:05;1.88;;;1.50;;
33579;SDS011;19909;43.644;-79.438;2023-09-19T14:47:32;1.90;;;1.58;;
33579;SDS011;19909;43.644;-79.438;2023-09-19T14:50:02;2.13;;;1.67;;
33579;SDS011;19909;43.644;-79.438;2023-09-19T14:52:32;2.58;;;1.20;;
33579;SDS011;19909;43.644;-79.438;2023-09-19T14:54:59;1.92;;;1.55;;
33579;SDS011;19909;43.644;-79.438;2023-09-19T14:57:27;2.22;;;1.50;;
33579;SDS011;19909;43.644;-79.438;2023-09-19T14:59:53;2.13;;;1.50;;
33579;SDS011;19909;43.644;-79.438;2023-09-19T15:02:19;2.08;;;1.65;;
33579;SDS011;19909;43.644;-79.438;2023-09-19T15:04:46;1.40;;;1.25;;
33579;SDS011;19909;43.644;-79.438;2023-09-19T15:07:15;2.55;;;1.55;;
33579;SDS011;19909;43.644;-79.438;2023-09-19T15:09:42;2.17;;;1.50;;
33579;SDS011;19909;43.644;-79.438;2023-09-19T15:12:09;3.15;;;1.38;;
33579;SDS011;19909;43.644;-79.438;2023-09-19T15:14:39;1.90;;;1.30;;
33579;SDS011;19909;43.644;-79.438;2023-09-19T15:17:07;1.65;;;1.33;;
33579;SDS011;19909;43.644;-79.438;2023-09-19T15:19:33;1.85;;;1.50;;
33579;SDS011;19909;43.644;-79.438;2023-09-19T15:22:00;2.38;;;1.50;;
33579;SDS011;19909;43.644;-79.438;2023-09-19T15:24:26;4.75;;;1.65;;
33579;SDS011;19909;43.644;-79.438;2023-09-19T15:26:52;2.03;;;1.25;;
33579;SDS011;19909;43.644;-79.438;2023-09-19T15:29:20;2.63;;;1.75;;
33579;SDS011;19909;43.644;-79.438;2023-09-19T15:31:47;1.60;;;1.45;;
33579;SDS011;19909;43.644;-79.438;2023-09-19T15:34:13;2.40;;;1.63;;
33579;SDS011;19909;43.644;-79.438;2023-09-19T15:36:41;1.75;;;1.38;;
33579;SDS011;19909;43.644;-79.438;2023-09-19T15:39:07;1.88;;;1.35;;
33579;SDS011;19909;43.644;-79.438;2023-09-19T15:41:37;2.05;;;1.10;;
33579;SDS011;19909;43.644;-79.438;2023-09-19T15:44:13;4.00;;;1.30;;
33579;SDS011;19909;43.644;-79.438;2023-09-19T15:46:41;2.17;;;1.40;;
33579;SDS011;19909;43.644;-79.438;2023-09-19T15:49:08;2.78;;;1.30;;
33579;SDS011;19909;43.644;-79.438;2023-09-19T15:51:35;2.65;;;1.55;;
33579;SDS011;19909;43.644;-79.438;2023-09-19T15:54:07;1.30;;;1.20;;
33579;SDS011;19909;43.644;-79.438;2023-09-19T15:56:35;3.17;;;1.30;;
33579;SDS011;19909;43.644;-79.438;2023-09-19T15:59:01;2.55;;;1.48;;
33579;SDS011;19909;43.644;-79.438;2023-09-19T16:01:27;1.73;;;1.20;;